sensor_id;sensor_type;location;lat;lon;timestamp;temperature;humidity
46652;DHT22;32377;52.182;5.398;2023-06-22T00:00:53;18.90;99.90
46652;DHT22;32377;52.182;5.398;2023-06-22T00:03:20;19.00;99.90
46652;DHT22;32377;52.182;5.398;2023-06-22T00:05:47;19.00;99.90
46652;DHT22;32377;52.182;5.398;2023-06-22T00:08:13;19.00;99.90
46652;DHT22;32377;52.182;5.398;2023-06-22T00:10:39;19.10;99.90
46652;DHT22;32377;52.182;5.398;2023-06-22T00:13:08;19.10;99.90
46652;DHT22;32377;52.182;5.398;2023-06-22T00:15:35;19.00;99.90
46652;DHT22;32377;52.182;5.398;2023-06-22T00:18:00;18.90;99.90
46652;DHT22;32377;52.182;5.398;2023-06-22T00:20:27;18.90;99.90
46652;DHT22;32377;52.182;5.398;2023-06-22T00:22:54;18.90;99.90
46652;DHT22;32377;52.182;5.398;2023-06-22T00:25:19;18.90;99.90
46652;DHT22;32377;52.182;5.398;2023-06-22T00:27:45;18.90;99.90
46652;DHT22;32377;52.182;5.398;2023-06-22T00:30:11;18.90;99.90
46652;DHT22;32377;52.182;5.398;2023-06-22T00:32:37;18.90;99.90
46652;DHT22;32377;52.182;5.398;2023-06-22T00:35:02;18.80;99.90
46652;DHT22;32377;52.182;5.398;2023-06-22T00:37:28;18.90;99.90
46652;DHT22;32377;52.182;5.398;2023-06-22T00:39:55;18.80;99.90
46652;DHT22;32377;52.182;5.398;2023-06-22T00:42:20;18.80;99.90
46652;DHT22;32377;52.182;5.398;2023-06-22T00:44:46;18.80;99.90
46652;DHT22;32377;52.182;5.398;2023-06-22T00:47:14;18.70;99.90
46652;DHT22;32377;52.182;5.398;2023-06-22T00:49:40;18.70;99.90
46652;DHT22;32377;52.182;5.398;2023-06-22T00:52:07;18.80;99.90
46652;DHT22;32377;52.182;5.398;2023-06-22T00:54:35;18.70;99.90
46652;DHT22;32377;52.182;5.398;2023-06-22T00:57:01;18.70;99.90
46652;DHT22;32377;52.182;5.398;2023-06-22T00:59:27;18.70;99.90
46652;DHT22;32377;52.182;5.398;2023-06-22T01:01:54;18.70;99.90
46652;DHT22;32377;52.182;5.398;2023-06-22T01:04:21;18.70;99.90
46652;DHT22;32377;52.182;5.398;2023-06-22T01:09:59;18.60;99.90
46652;DHT22;32377;52.182;5.398;2023-06-22T01:12:30;18.60;99.90
46652;DHT22;32377;52.182;5.398;2023-06-22T01:15:03;18.60;99.90
46652;DHT22;32377;52.182;5.398;2023-06-22T01:17:29;18.50;99.90
46652;DHT22;32377;52.182;5.398;2023-06-22T01:19:57;18.50;99.90
46652;DHT22;32377;52.182;5.398;2023-06-22T01:22:26;18.40;99.90
46652;DHT22;32377;52.182;5.398;2023-06-22T01:25:07;18.30;99.90
46652;DHT22;32377;52.182;5.398;2023-06-22T01:28:43;18.20;99.90
46652;DHT22;32377;52.182;5.398;2023-06-22T01:30:49;18.20;99.90
46652;DHT22;32377;52.182;5.398;2023-06-22T01:33:29;18.10;99.90
46652;DHT22;32377;52.182;5.398;2023-06-22T01:35:56;18.10;99.90
46652;DHT22;32377;52.182;5.398;2023-06-22T01:38:22;18.10;99.90
46652;DHT22;32377;52.182;5.398;2023-06-22T01:40:48;18.10;99.90
46652;DHT22;32377;52.182;5.398;2023-06-22T01:43:15;18.00;99.90
46652;DHT22;32377;52.182;5.398;2023-06-22T01:45:42;18.00;99.90
46652;DHT22;32377;52.182;5.398;2023-06-22T01:48:08;17.90;99.90
46652;DHT22;32377;52.182;5.398;2023-06-22T01:50:34;17.90;99.90
46652;DHT22;32377;52.182;5.398;2023-06-22T01:52:59;17.90;99.90
46652;DHT22;32377;52.182;5.398;2023-06-22T01:55:25;17.90;99.90
46652;DHT22;32377;52.182;5.398;2023-06-22T01:57:50;17.90;99.90
46652;DHT22;32377;52.182;5.398;2023-06-22T02:00:20;17.80;99.90
46652;DHT22;32377;52.182;5.398;2023-06-22T02:05:19;17.80;99.90
46652;DHT22;32377;52.182;5.398;2023-06-22T02:11:08;17.80;99.90
46652;DHT22;32377;52.182;5.398;2023-06-22T02:13:36;17.80;99.90
46652;DHT22;32377;52.182;5.398;2023-06-22T02:16:03;17.70;99.90
46652;DHT22;32377;52.182;5.398;2023-06-22T02:18:29;17.70;99.90
46652;DHT22;32377;52.182;5.398;2023-06-22T02:20:54;17.80;99.90
46652;DHT22;32377;52.182;5.398;2023-06-22T02:23:20;17.80;99.90
46652;DHT22;32377;52.182;5.398;2023-06-22T02:25:46;17.70;99.90
46652;DHT22;32377;52.182;5.398;2023-06-22T02:28:11;17.70;99.90
46652;DHT22;32377;52.182;5.398;2023-06-22T02:30:37;17.70;99.90
46652;DHT22;32377;52.182;5.398;2023-06-22T02:33:02;17.70;99.90
46652;DHT22;32377;52.182;5.398;2023-06-22T02:35:28;17.60;99.90
46652;DHT22;32377;52.182;5.398;2023-06-22T02:37:59;17.60;99.90
46652;DHT22;32377;52.182;5.398;2023-06-22T02:40:26;17.60;99.90
46652;DHT22;32377;52.182;5.398;2023-06-22T02:42:52;17.60;99.90
46652;DHT22;32377;52.182;5.398;2023-06-22T02:45:17;17.60;99.90
46652;DHT22;32377;52.182;5.398;2023-06-22T02:47:43;17.60;99.90
46652;DHT22;32377;52.182;5.398;2023-06-22T02:50:09;17.60;99.90
46652;DHT22;32377;52.182;5.398;2023-06-22T02:52:35;17.60;99.90
46652;DHT22;32377;52.182;5.398;2023-06-22T02:55:01;17.50;99.90
46652;DHT22;32377;52.182;5.398;2023-06-22T02:57:26;17.40;99.90
46652;DHT22;32377;52.182;5.398;2023-06-22T02:59:52;17.40;99.90
46652;DHT22;32377;52.182;5.398;2023-06-22T03:02:17;17.40;99.90
46652;DHT22;32377;52.182;5.398;2023-06-22T03:04:46;17.40;99.90
46652;DHT22;32377;52.182;5.398;2023-06-22T03:07:14;17.40;99.90
46652;DHT22;32377;52.182;5.398;2023-06-22T03:09:40;17.40;99.90
46652;DHT22;32377;52.182;5.398;2023-06-22T03:12:07;17.40;99.90
46652;DHT22;32377;52.182;5.398;2023-06-22T03:14:33;17.40;99.90
46652;DHT22;32377;52.182;5.398;2023-06-22T03:16:59;17.30;99.90
46652;DHT22;32377;52.182;5.398;2023-06-22T03:19:31;17.30;99.90
46652;DHT22;32377;52.182;5.398;2023-06-22T03:22:00;17.20;99.90
46652;DHT22;32377;52.182;5.398;2023-06-22T03:24:28;17.30;99.90
46652;DHT22;32377;52.182;5.398;2023-06-22T03:26:55;17.20;99.90
46652;DHT22;32377;52.182;5.398;2023-06-22T03:29:21;17.20;99.90
46652;DHT22;32377;52.182;5.398;2023-06-22T03:31:46;17.20;99.90
46652;DHT22;32377;52.182;5.398;2023-06-22T03:34:12;17.20;99.90
46652;DHT22;32377;52.182;5.398;2023-06-22T03:36:37;17.20;99.90
46652;DHT22;32377;52.182;5.398;2023-06-22T03:39:03;17.20;99.90
46652;DHT22;32377;52.182;5.398;2023-06-22T03:41:29;17.20;99.90
46652;DHT22;32377;52.182;5.398;2023-06-22T03:43:54;17.20;99.90
46652;DHT22;32377;52.182;5.398;2023-06-22T03:46:20;17.20;99.90
46652;DHT22;32377;52.182;5.398;2023-06-22T03:48:45;17.20;99.90
46652;DHT22;32377;52.182;5.398;2023-06-22T03:51:11;17.20;99.90
46652;DHT22;32377;52.182;5.398;2023-06-22T03:53:37;17.20;99.90
46652;DHT22;32377;52.182;5.398;2023-06-22T03:58:46;17.20;99.90
46652;DHT22;32377;52.182;5.398;2023-06-22T04:01:11;17.20;99.90
46652;DHT22;32377;52.182;5.398;2023-06-22T04:03:38;17.20;99.90
46652;DHT22;32377;52.182;5.398;2023-06-22T04:06:03;17.20;99.90
46652;DHT22;32377;52.182;5.398;2023-06-22T04:08:29;17.20;99.90
46652;DHT22;32377;52.182;5.398;2023-06-22T04:10:55;17.20;99.90
46652;DHT22;32377;52.182;5.398;2023-06-22T04:13:21;17.20;99.90
46652;DHT22;32377;52.182;5.398;2023-06-22T04:15:47;17.20;99.90
46652;DHT22;32377;52.182;5.398;2023-06-22T04:18:12;17.30;99.90
46652;DHT22;32377;52.182;5.398;2023-06-22T04:20:39;17.30;99.90
46652;DHT22;32377;52.182;5.398;2023-06-22T04:23:05;17.40;99.90
46652;DHT22;32377;52.182;5.398;2023-06-22T04:25:30;17.40;99.90
46652;DHT22;32377;52.182;5.398;2023-06-22T04:27:56;17.50;99.90
46652;DHT22;32377;52.182;5.398;2023-06-22T04:30:22;17.50;99.90
46652;DHT22;32377;52.182;5.398;2023-06-22T04:32:48;17.50;99.90
46652;DHT22;32377;52.182;5.398;2023-06-22T04:35:21;17.50;99.90
46652;DHT22;32377;52.182;5.398;2023-06-22T04:37:48;17.60;99.90
46652;DHT22;32377;52.182;5.398;2023-06-22T04:40:15;17.70;99.90
46652;DHT22;32377;52.182;5.398;2023-06-22T04:42:40;17.70;99.90
46652;DHT22;32377;52.182;5.398;2023-06-22T04:45:19;17.70;99.90
46652;DHT22;32377;52.182;5.398;2023-06-22T04:47:45;17.90;99.90
46652;DHT22;32377;52.182;5.398;2023-06-22T04:50:12;18.00;99.90
46652;DHT22;32377;52.182;5.398;2023-06-22T04:52:38;18.10;99.90
46652;DHT22;32377;52.182;5.398;2023-06-22T04:55:04;18.20;99.90
46652;DHT22;32377;52.182;5.398;2023-06-22T04:57:30;18.30;99.90
46652;DHT22;32377;52.182;5.398;2023-06-22T05:00:02;18.50;99.90
46652;DHT22;32377;52.182;5.398;2023-06-22T05:02:41;18.50;99.90
46652;DHT22;32377;52.182;5.398;2023-06-22T05:05:07;18.60;99.90
46652;DHT22;32377;52.182;5.398;2023-06-22T05:07:36;18.60;99.90
46652;DHT22;32377;52.182;5.398;2023-06-22T05:10:03;18.70;99.90
46652;DHT22;32377;52.182;5.398;2023-06-22T05:12:29;18.70;99.90
46652;DHT22;32377;52.182;5.398;2023-06-22T05:14:55;18.60;99.90
46652;DHT22;32377;52.182;5.398;2023-06-22T05:17:21;18.80;99.90
46652;DHT22;32377;52.182;5.398;2023-06-22T05:19:47;18.70;99.90
46652;DHT22;32377;52.182;5.398;2023-06-22T05:22:16;18.70;99.90
46652;DHT22;32377;52.182;5.398;2023-06-22T05:24:42;18.80;99.90
46652;DHT22;32377;52.182;5.398;2023-06-22T05:27:09;18.70;99.90
46652;DHT22;32377;52.182;5.398;2023-06-22T05:29:35;18.80;99.90
46652;DHT22;32377;52.182;5.398;2023-06-22T05:32:01;19.00;99.90
46652;DHT22;32377;52.182;5.398;2023-06-22T05:34:27;19.20;99.90
46652;DHT22;32377;52.182;5.398;2023-06-22T05:36:52;19.20;99.90
46652;DHT22;32377;52.182;5.398;2023-06-22T05:39:18;19.30;99.90
46652;DHT22;32377;52.182;5.398;2023-06-22T05:41:45;19.30;99.90
46652;DHT22;32377;52.182;5.398;2023-06-22T05:44:10;19.40;99.90
46652;DHT22;32377;52.182;5.398;2023-06-22T05:46:36;19.50;99.90
46652;DHT22;32377;52.182;5.398;2023-06-22T05:49:02;19.50;99.90
46652;DHT22;32377;52.182;5.398;2023-06-22T05:51:27;19.50;99.90
46652;DHT22;32377;52.182;5.398;2023-06-22T05:53:53;19.50;99.90
46652;DHT22;32377;52.182;5.398;2023-06-22T05:56:19;19.70;99.90
46652;DHT22;32377;52.182;5.398;2023-06-22T05:58:46;19.70;99.90
46652;DHT22;32377;52.182;5.398;2023-06-22T06:01:11;19.80;99.90
46652;DHT22;32377;52.182;5.398;2023-06-22T06:03:37;19.90;99.90
46652;DHT22;32377;52.182;5.398;2023-06-22T06:06:06;20.10;99.90
46652;DHT22;32377;52.182;5.398;2023-06-22T06:08:32;20.20;99.90
46652;DHT22;32377;52.182;5.398;2023-06-22T06:10:58;20.30;99.90
46652;DHT22;32377;52.182;5.398;2023-06-22T06:13:24;20.40;99.90
46652;DHT22;32377;52.182;5.398;2023-06-22T06:15:49;20.50;99.90
46652;DHT22;32377;52.182;5.398;2023-06-22T06:18:17;20.60;99.90
46652;DHT22;32377;52.182;5.398;2023-06-22T06:20:42;20.90;99.90
46652;DHT22;32377;52.182;5.398;2023-06-22T06:23:08;21.00;99.90
46652;DHT22;32377;52.182;5.398;2023-06-22T06:25:33;21.20;99.90
46652;DHT22;32377;52.182;5.398;2023-06-22T06:27:59;21.40;99.90
46652;DHT22;32377;52.182;5.398;2023-06-22T06:30:25;21.40;99.90
46652;DHT22;32377;52.182;5.398;2023-06-22T06:32:51;21.50;99.90
46652;DHT22;32377;52.182;5.398;2023-06-22T06:35:17;21.60;99.90
46652;DHT22;32377;52.182;5.398;2023-06-22T06:37:44;21.70;99.90
46652;DHT22;32377;52.182;5.398;2023-06-22T06:40:11;21.70;99.90
46652;DHT22;32377;52.182;5.398;2023-06-22T06:42:38;21.80;99.90
46652;DHT22;32377;52.182;5.398;2023-06-22T06:45:06;21.90;99.90
46652;DHT22;32377;52.182;5.398;2023-06-22T06:47:32;22.10;99.90
46652;DHT22;32377;52.182;5.398;2023-06-22T06:49:57;22.10;99.90
46652;DHT22;32377;52.182;5.398;2023-06-22T06:52:23;22.20;99.90
46652;DHT22;32377;52.182;5.398;2023-06-22T06:54:49;22.30;99.90
46652;DHT22;32377;52.182;5.398;2023-06-22T06:57:17;22.50;99.90
46652;DHT22;32377;52.182;5.398;2023-06-22T06:59:43;22.80;99.90
46652;DHT22;32377;52.182;5.398;2023-06-22T07:02:08;23.00;99.90
46652;DHT22;32377;52.182;5.398;2023-06-22T07:04:34;23.00;99.90
46652;DHT22;32377;52.182;5.398;2023-06-22T07:07:01;22.90;99.90
46652;DHT22;32377;52.182;5.398;2023-06-22T07:09:27;22.90;99.90
46652;DHT22;32377;52.182;5.398;2023-06-22T07:11:53;22.80;99.90
46652;DHT22;32377;52.182;5.398;2023-06-22T07:14:18;22.90;99.90
46652;DHT22;32377;52.182;5.398;2023-06-22T07:16:44;23.00;99.90
46652;DHT22;32377;52.182;5.398;2023-06-22T07:19:11;23.10;99.90
46652;DHT22;32377;52.182;5.398;2023-06-22T07:21:37;23.30;99.90
46652;DHT22;32377;52.182;5.398;2023-06-22T07:24:05;23.30;99.90
46652;DHT22;32377;52.182;5.398;2023-06-22T07:26:31;23.20;99.90
46652;DHT22;32377;52.182;5.398;2023-06-22T07:28:57;23.10;99.90
46652;DHT22;32377;52.182;5.398;2023-06-22T07:31:24;23.10;99.90
46652;DHT22;32377;52.182;5.398;2023-06-22T07:33:50;23.10;99.90
46652;DHT22;32377;52.182;5.398;2023-06-22T07:36:17;23.10;99.90
46652;DHT22;32377;52.182;5.398;2023-06-22T07:38:42;23.20;99.90
46652;DHT22;32377;52.182;5.398;2023-06-22T07:41:08;23.40;99.90
46652;DHT22;32377;52.182;5.398;2023-06-22T07:43:34;23.60;99.90
46652;DHT22;32377;52.182;5.398;2023-06-22T07:46:03;23.50;99.90
46652;DHT22;32377;52.182;5.398;2023-06-22T07:48:29;23.60;99.90
46652;DHT22;32377;52.182;5.398;2023-06-22T07:50:55;23.70;99.90
46652;DHT22;32377;52.182;5.398;2023-06-22T07:53:21;23.70;99.90
46652;DHT22;32377;52.182;5.398;2023-06-22T07:55:48;23.90;99.90
46652;DHT22;32377;52.182;5.398;2023-06-22T07:58:14;23.90;99.90
46652;DHT22;32377;52.182;5.398;2023-06-22T08:00:41;23.80;99.90
46652;DHT22;32377;52.182;5.398;2023-06-22T08:03:06;24.00;99.90
46652;DHT22;32377;52.182;5.398;2023-06-22T08:05:32;24.20;99.90
46652;DHT22;32377;52.182;5.398;2023-06-22T08:07:58;24.10;99.90
46652;DHT22;32377;52.182;5.398;2023-06-22T08:10:24;24.00;99.90
46652;DHT22;32377;52.182;5.398;2023-06-22T08:12:50;24.10;99.90
46652;DHT22;32377;52.182;5.398;2023-06-22T08:15:17;24.20;99.90
46652;DHT22;32377;52.182;5.398;2023-06-22T08:17:44;24.20;99.90
46652;DHT22;32377;52.182;5.398;2023-06-22T08:20:11;24.30;99.90
46652;DHT22;32377;52.182;5.398;2023-06-22T08:22:40;24.30;99.90
46652;DHT22;32377;52.182;5.398;2023-06-22T08:25:07;24.40;99.90
46652;DHT22;32377;52.182;5.398;2023-06-22T08:27:32;24.80;99.90
46652;DHT22;32377;52.182;5.398;2023-06-22T08:29:59;25.00;99.90
46652;DHT22;32377;52.182;5.398;2023-06-22T08:32:26;24.90;99.90
46652;DHT22;32377;52.182;5.398;2023-06-22T08:34:56;24.90;99.90
46652;DHT22;32377;52.182;5.398;2023-06-22T08:37:22;24.90;99.90
46652;DHT22;32377;52.182;5.398;2023-06-22T08:39:59;25.00;99.90
46652;DHT22;32377;52.182;5.398;2023-06-22T08:42:26;25.10;99.90
46652;DHT22;32377;52.182;5.398;2023-06-22T08:44:52;24.90;99.90
46652;DHT22;32377;52.182;5.398;2023-06-22T08:47:18;25.00;99.90
46652;DHT22;32377;52.182;5.398;2023-06-22T08:49:43;25.10;99.90
46652;DHT22;32377;52.182;5.398;2023-06-22T08:52:09;25.00;99.90
46652;DHT22;32377;52.182;5.398;2023-06-22T08:54:35;24.80;99.90
46652;DHT22;32377;52.182;5.398;2023-06-22T08:57:01;24.80;99.90
46652;DHT22;32377;52.182;5.398;2023-06-22T08:59:27;24.70;99.90
46652;DHT22;32377;52.182;5.398;2023-06-22T09:01:53;24.70;99.90
46652;DHT22;32377;52.182;5.398;2023-06-22T09:04:18;24.80;99.90
46652;DHT22;32377;52.182;5.398;2023-06-22T09:06:44;24.80;99.90
46652;DHT22;32377;52.182;5.398;2023-06-22T09:09:12;24.80;99.90
46652;DHT22;32377;52.182;5.398;2023-06-22T09:11:38;24.90;99.90
46652;DHT22;32377;52.182;5.398;2023-06-22T09:14:04;25.00;99.90
46652;DHT22;32377;52.182;5.398;2023-06-22T09:16:30;25.10;99.90
46652;DHT22;32377;52.182;5.398;2023-06-22T09:18:55;25.20;99.90
46652;DHT22;32377;52.182;5.398;2023-06-22T09:21:21;25.10;99.90
46652;DHT22;32377;52.182;5.398;2023-06-22T09:23:47;25.30;99.90
46652;DHT22;32377;52.182;5.398;2023-06-22T09:26:19;25.60;99.90
46652;DHT22;32377;52.182;5.398;2023-06-22T09:28:45;25.80;99.90
46652;DHT22;32377;52.182;5.398;2023-06-22T09:31:11;26.00;99.90
46652;DHT22;32377;52.182;5.398;2023-06-22T09:33:37;26.10;99.90
46652;DHT22;32377;52.182;5.398;2023-06-22T09:36:06;26.00;99.90
46652;DHT22;32377;52.182;5.398;2023-06-22T09:38:36;25.90;99.90
46652;DHT22;32377;52.182;5.398;2023-06-22T09:41:01;26.10;99.90
46652;DHT22;32377;52.182;5.398;2023-06-22T09:43:28;26.00;99.90
46652;DHT22;32377;52.182;5.398;2023-06-22T09:45:53;26.20;99.90
46652;DHT22;32377;52.182;5.398;2023-06-22T09:48:19;26.40;99.90
46652;DHT22;32377;52.182;5.398;2023-06-22T09:50:44;26.50;99.00
46652;DHT22;32377;52.182;5.398;2023-06-22T09:53:10;26.50;98.70
46652;DHT22;32377;52.182;5.398;2023-06-22T09:58:41;26.70;98.60
46652;DHT22;32377;52.182;5.398;2023-06-22T10:01:07;26.50;98.80
46652;DHT22;32377;52.182;5.398;2023-06-22T10:03:32;26.50;99.60
46652;DHT22;32377;52.182;5.398;2023-06-22T10:05:58;26.50;99.90
46652;DHT22;32377;52.182;5.398;2023-06-22T10:08:24;26.50;99.90
46652;DHT22;32377;52.182;5.398;2023-06-22T10:10:49;26.30;99.90
46652;DHT22;32377;52.182;5.398;2023-06-22T10:13:15;26.00;99.90
46652;DHT22;32377;52.182;5.398;2023-06-22T10:15:41;26.00;99.90
46652;DHT22;32377;52.182;5.398;2023-06-22T10:18:08;25.90;99.90
46652;DHT22;32377;52.182;5.398;2023-06-22T10:20:33;25.90;99.90
46652;DHT22;32377;52.182;5.398;2023-06-22T10:22:59;25.60;99.90
46652;DHT22;32377;52.182;5.398;2023-06-22T10:25:24;25.60;99.90
46652;DHT22;32377;52.182;5.398;2023-06-22T10:27:50;25.50;99.90
46652;DHT22;32377;52.182;5.398;2023-06-22T10:30:16;25.40;99.90
46652;DHT22;32377;52.182;5.398;2023-06-22T10:32:42;25.30;99.90
46652;DHT22;32377;52.182;5.398;2023-06-22T10:35:09;25.10;99.90
46652;DHT22;32377;52.182;5.398;2023-06-22T10:37:36;25.00;99.90
46652;DHT22;32377;52.182;5.398;2023-06-22T10:40:02;25.00;99.90
46652;DHT22;32377;52.182;5.398;2023-06-22T10:42:29;25.00;99.90
46652;DHT22;32377;52.182;5.398;2023-06-22T10:44:55;24.90;99.90
46652;DHT22;32377;52.182;5.398;2023-06-22T10:47:21;24.90;99.90
46652;DHT22;32377;52.182;5.398;2023-06-22T10:49:46;24.90;99.90
46652;DHT22;32377;52.182;5.398;2023-06-22T10:52:12;24.80;99.90
46652;DHT22;32377;52.182;5.398;2023-06-22T10:54:38;24.80;99.90
46652;DHT22;32377;52.182;5.398;2023-06-22T10:57:04;24.80;99.90
46652;DHT22;32377;52.182;5.398;2023-06-22T10:59:30;24.80;99.90
46652;DHT22;32377;52.182;5.398;2023-06-22T11:01:56;24.80;99.90
46652;DHT22;32377;52.182;5.398;2023-06-22T11:04:22;24.80;99.90
46652;DHT22;32377;52.182;5.398;2023-06-22T11:06:48;24.80;99.90
46652;DHT22;32377;52.182;5.398;2023-06-22T11:09:15;24.80;99.90
46652;DHT22;32377;52.182;5.398;2023-06-22T11:11:46;24.70;99.90
46652;DHT22;32377;52.182;5.398;2023-06-22T11:14:12;24.80;99.90
46652;DHT22;32377;52.182;5.398;2023-06-22T11:16:38;24.80;99.90
46652;DHT22;32377;52.182;5.398;2023-06-22T11:19:05;24.90;99.90
46652;DHT22;32377;52.182;5.398;2023-06-22T11:21:31;25.00;99.90
46652;DHT22;32377;52.182;5.398;2023-06-22T11:23:57;25.10;99.90
46652;DHT22;32377;52.182;5.398;2023-06-22T11:26:23;25.00;99.90
46652;DHT22;32377;52.182;5.398;2023-06-22T11:28:49;25.10;99.90
46652;DHT22;32377;52.182;5.398;2023-06-22T11:31:15;25.10;99.90
46652;DHT22;32377;52.182;5.398;2023-06-22T11:33:40;25.00;99.90
46652;DHT22;32377;52.182;5.398;2023-06-22T11:36:06;25.10;99.90
46652;DHT22;32377;52.182;5.398;2023-06-22T11:38:31;25.20;99.90
46652;DHT22;32377;52.182;5.398;2023-06-22T11:40:59;25.30;99.90
46652;DHT22;32377;52.182;5.398;2023-06-22T11:43:25;25.20;99.90
46652;DHT22;32377;52.182;5.398;2023-06-22T11:45:50;25.20;99.90
46652;DHT22;32377;52.182;5.398;2023-06-22T11:48:16;25.20;99.90
46652;DHT22;32377;52.182;5.398;2023-06-22T11:50:41;25.20;99.90
46652;DHT22;32377;52.182;5.398;2023-06-22T11:53:07;25.20;99.90
46652;DHT22;32377;52.182;5.398;2023-06-22T11:55:33;25.20;99.90
46652;DHT22;32377;52.182;5.398;2023-06-22T11:57:58;25.40;99.90
46652;DHT22;32377;52.182;5.398;2023-06-22T12:00:26;25.40;99.90
46652;DHT22;32377;52.182;5.398;2023-06-22T12:02:52;25.50;99.90
46652;DHT22;32377;52.182;5.398;2023-06-22T12:05:21;25.60;99.90
46652;DHT22;32377;52.182;5.398;2023-06-22T12:07:48;25.60;99.90
46652;DHT22;32377;52.182;5.398;2023-06-22T12:10:14;25.60;99.90
46652;DHT22;32377;52.182;5.398;2023-06-22T12:12:40;25.50;99.90
46652;DHT22;32377;52.182;5.398;2023-06-22T12:15:06;25.40;99.90
46652;DHT22;32377;52.182;5.398;2023-06-22T12:17:33;25.30;99.90
46652;DHT22;32377;52.182;5.398;2023-06-22T12:19:59;25.40;99.90
46652;DHT22;32377;52.182;5.398;2023-06-22T12:22:24;25.40;99.90
46652;DHT22;32377;52.182;5.398;2023-06-22T12:24:50;25.40;99.90
46652;DHT22;32377;52.182;5.398;2023-06-22T12:27:17;25.50;99.90
46652;DHT22;32377;52.182;5.398;2023-06-22T12:29:45;25.50;99.90
46652;DHT22;32377;52.182;5.398;2023-06-22T12:32:10;25.40;99.90
46652;DHT22;32377;52.182;5.398;2023-06-22T12:34:38;25.50;99.90
46652;DHT22;32377;52.182;5.398;2023-06-22T12:37:04;25.40;99.90
46652;DHT22;32377;52.182;5.398;2023-06-22T12:39:31;25.20;99.90
46652;DHT22;32377;52.182;5.398;2023-06-22T12:41:57;25.20;99.90
46652;DHT22;32377;52.182;5.398;2023-06-22T12:44:22;25.20;99.90
46652;DHT22;32377;52.182;5.398;2023-06-22T12:46:48;25.10;99.90
46652;DHT22;32377;52.182;5.398;2023-06-22T12:49:14;25.20;99.90
46652;DHT22;32377;52.182;5.398;2023-06-22T12:51:40;25.10;99.90
46652;DHT22;32377;52.182;5.398;2023-06-22T12:54:09;24.80;99.90
46652;DHT22;32377;52.182;5.398;2023-06-22T12:56:35;24.40;99.90
46652;DHT22;32377;52.182;5.398;2023-06-22T12:59:01;24.10;99.90
46652;DHT22;32377;52.182;5.398;2023-06-22T13:01:27;24.00;99.90
46652;DHT22;32377;52.182;5.398;2023-06-22T13:03:53;23.80;99.90
46652;DHT22;32377;52.182;5.398;2023-06-22T13:06:19;23.80;99.90
46652;DHT22;32377;52.182;5.398;2023-06-22T13:08:45;23.60;99.90
46652;DHT22;32377;52.182;5.398;2023-06-22T13:11:11;23.60;99.90
46652;DHT22;32377;52.182;5.398;2023-06-22T13:13:36;23.50;99.90
46652;DHT22;32377;52.182;5.398;2023-06-22T13:16:02;23.40;99.90
46652;DHT22;32377;52.182;5.398;2023-06-22T13:18:28;23.40;99.90
46652;DHT22;32377;52.182;5.398;2023-06-22T13:20:53;23.30;99.90
46652;DHT22;32377;52.182;5.398;2023-06-22T13:23:20;23.20;99.90
46652;DHT22;32377;52.182;5.398;2023-06-22T13:25:46;23.10;99.90
46652;DHT22;32377;52.182;5.398;2023-06-22T13:28:12;22.90;99.90
46652;DHT22;32377;52.182;5.398;2023-06-22T13:30:40;22.70;99.90
46652;DHT22;32377;52.182;5.398;2023-06-22T13:33:05;22.50;99.90
46652;DHT22;32377;52.182;5.398;2023-06-22T13:35:31;22.40;99.90
46652;DHT22;32377;52.182;5.398;2023-06-22T13:37:57;22.40;99.90
46652;DHT22;32377;52.182;5.398;2023-06-22T13:40:22;22.30;99.90
46652;DHT22;32377;52.182;5.398;2023-06-22T13:42:48;22.30;99.90
46652;DHT22;32377;52.182;5.398;2023-06-22T13:45:14;22.20;99.90
46652;DHT22;32377;52.182;5.398;2023-06-22T13:47:42;22.20;99.90
46652;DHT22;32377;52.182;5.398;2023-06-22T13:50:08;22.00;99.90
46652;DHT22;32377;52.182;5.398;2023-06-22T13:52:33;21.90;99.90
46652;DHT22;32377;52.182;5.398;2023-06-22T13:54:59;21.80;99.90
46652;DHT22;32377;52.182;5.398;2023-06-22T13:57:24;21.80;99.90
46652;DHT22;32377;52.182;5.398;2023-06-22T13:59:50;21.70;99.90
46652;DHT22;32377;52.182;5.398;2023-06-22T14:02:16;21.60;99.90
46652;DHT22;32377;52.182;5.398;2023-06-22T14:04:41;21.50;99.90
46652;DHT22;32377;52.182;5.398;2023-06-22T14:07:07;21.40;99.90
46652;DHT22;32377;52.182;5.398;2023-06-22T14:09:33;21.40;99.90
46652;DHT22;32377;52.182;5.398;2023-06-22T14:12:03;21.40;99.90
46652;DHT22;32377;52.182;5.398;2023-06-22T14:14:29;21.30;99.90
46652;DHT22;32377;52.182;5.398;2023-06-22T14:16:55;21.30;99.90
46652;DHT22;32377;52.182;5.398;2023-06-22T14:19:20;21.30;99.90
46652;DHT22;32377;52.182;5.398;2023-06-22T14:21:46;21.20;99.90
46652;DHT22;32377;52.182;5.398;2023-06-22T14:24:12;21.20;99.90
46652;DHT22;32377;52.182;5.398;2023-06-22T14:26:37;21.20;99.90
46652;DHT22;32377;52.182;5.398;2023-06-22T14:29:03;21.10;99.90
46652;DHT22;32377;52.182;5.398;2023-06-22T14:31:29;21.10;99.90
46652;DHT22;32377;52.182;5.398;2023-06-22T14:33:55;21.10;99.90
46652;DHT22;32377;52.182;5.398;2023-06-22T14:36:20;21.00;99.90
46652;DHT22;32377;52.182;5.398;2023-06-22T14:38:46;20.90;99.90
46652;DHT22;32377;52.182;5.398;2023-06-22T14:41:12;20.90;99.90
46652;DHT22;32377;52.182;5.398;2023-06-22T14:43:37;20.90;99.90
46652;DHT22;32377;52.182;5.398;2023-06-22T14:46:03;20.80;99.90
46652;DHT22;32377;52.182;5.398;2023-06-22T14:48:29;20.80;99.90
46652;DHT22;32377;52.182;5.398;2023-06-22T14:50:54;20.70;99.90
46652;DHT22;32377;52.182;5.398;2023-06-22T14:53:20;20.70;99.90
46652;DHT22;32377;52.182;5.398;2023-06-22T14:55:46;20.70;99.90
46652;DHT22;32377;52.182;5.398;2023-06-22T14:58:11;20.70;99.90
46652;DHT22;32377;52.182;5.398;2023-06-22T15:00:37;20.60;99.90
46652;DHT22;32377;52.182;5.398;2023-06-22T15:03:04;20.60;99.90
46652;DHT22;32377;52.182;5.398;2023-06-22T15:05:32;20.60;99.90
46652;DHT22;32377;52.182;5.398;2023-06-22T15:07:57;20.50;99.90
46652;DHT22;32377;52.182;5.398;2023-06-22T15:10:24;20.60;99.90
46652;DHT22;32377;52.182;5.398;2023-06-22T15:12:50;20.50;99.90
46652;DHT22;32377;52.182;5.398;2023-06-22T15:15:16;20.50;99.90
46652;DHT22;32377;52.182;5.398;2023-06-22T15:17:41;20.50;99.90
46652;DHT22;32377;52.182;5.398;2023-06-22T15:20:07;20.40;99.90
46652;DHT22;32377;52.182;5.398;2023-06-22T15:22:33;20.40;99.90
46652;DHT22;32377;52.182;5.398;2023-06-22T15:24:58;20.40;99.90
46652;DHT22;32377;52.182;5.398;2023-06-22T15:27:24;20.30;99.90
46652;DHT22;32377;52.182;5.398;2023-06-22T15:29:50;20.30;99.90
46652;DHT22;32377;52.182;5.398;2023-06-22T15:32:16;20.30;99.90
46652;DHT22;32377;52.182;5.398;2023-06-22T15:34:41;20.30;99.90
46652;DHT22;32377;52.182;5.398;2023-06-22T15:37:07;20.30;99.90
46652;DHT22;32377;52.182;5.398;2023-06-22T15:39:33;20.30;99.90